Aviation Digital Data Service (ADDS)

Output produced by TAFs form (1918 UTC 23 April 2018)
found at http://www.aviationweather.gov/adds/tafs/
 
KABY 231910Z 20011G17KT 10SM BKN050 28/19 A2990 RMK AO2 T02780189
KABY 231739Z 2318/2418 21012G18KT P6SM BKN040 OVC250 
     TEMPO 2318/2319 20012G30KT 1SM RA 
     FM240000 22005KT P6SM SCT050 BKN250 
     FM241300 25006KT P6SM SCT250